CUC weather

Camilo Daza International Airport
CĂșcuta, Norte de Santander Department, Colombia

Public forecast

Using degrees Celsius for public forecast. Weather courtesy of forecast.io.

METAR (pilot weather report)

Retrieved 2019/03/19 19:00 UTC (15 minutes ago):

SKCC 191900Z 16011KT 7000 SCT018 SCT090 32/18 A2988 RMK HZ

TAF (pilot weather forecast)

Forecast is more than 12 hours old.

Retrieved 2019/03/16 00:00 UTC (4 days ago):

TAF SKCC 152300Z 1600/1624 35009KT 9000 SCT020TCU SCT090 TEMPO 1600/1602 -RA BECMG 1602/1604 VRB02KT 8000 TEMPO 1609/1613 5000 BR SCT015 TEMPO 1619/1623 36010KT TX32/1619Z TN23/1611Z